createdAt,value
2023-04-06T00:00:33.934Z,72.37
2023-04-06T00:04:37.958Z,72.90
2023-04-06T00:08:40.789Z,73.73
2023-04-06T00:12:43.505Z,73.56
2023-04-06T00:16:46.272Z,74.01
2023-04-06T00:20:51.953Z,73.74
2023-04-06T00:24:54.602Z,73.01
2023-04-06T00:28:57.369Z,73.20
2023-04-06T00:33:00.116Z,73.57
2023-04-06T00:37:04.188Z,73.27
2023-04-06T00:41:06.907Z,72.79
2023-04-06T00:45:10.934Z,72.49
2023-04-06T00:49:13.653Z,72.97
2023-04-06T00:53:18.549Z,73.42
2023-04-06T00:57:21.286Z,72.87
2023-04-06T01:01:25.657Z,73.89
2023-04-06T01:05:28.522Z,73.90
2023-04-06T01:09:33.005Z,73.75
2023-04-06T01:13:35.690Z,74.20
2023-04-06T01:17:38.393Z,74.13
2023-04-06T01:21:42.526Z,73.96
2023-04-06T01:25:46.559Z,74.25
2023-04-06T01:29:49.230Z,73.59
2023-04-06T01:33:51.930Z,73.29
2023-04-06T01:37:54.557Z,74.03
2023-04-06T01:41:58.560Z,73.99
2023-04-06T01:46:01.654Z,74.28
2023-04-06T01:50:07.163Z,74.29
2023-04-06T01:54:09.863Z,74.11
2023-04-06T01:58:14.117Z,75.32
2023-04-06T02:02:16.855Z,75.06
2023-04-06T02:06:19.591Z,75.49
2023-04-06T02:10:22.257Z,75.72
2023-04-06T02:14:27.983Z,75.74
2023-04-06T02:18:31.590Z,75.45
2023-04-06T02:22:34.275Z,75.11
2023-04-06T02:26:36.952Z,75.94
2023-04-06T02:30:40.947Z,75.51
2023-04-06T02:34:43.569Z,75.25
2023-04-06T02:38:46.223Z,75.36
2023-04-06T02:42:48.884Z,75.29
2023-04-06T02:46:52.923Z,75.82
2023-04-06T02:50:55.575Z,75.66
2023-04-06T02:54:58.218Z,75.70
2023-04-06T02:59:01.003Z,75.80
2023-04-06T03:03:05.843Z,75.98
2023-04-06T03:07:08.598Z,75.44
2023-04-06T03:11:11.604Z,75.67
2023-04-06T03:15:14.302Z,75.85
2023-04-06T03:19:18.375Z,75.80
2023-04-06T03:23:21.809Z,75.33
2023-04-06T03:27:24.572Z,75.53
2023-04-06T03:31:28.331Z,75.62
2023-04-06T03:35:32.431Z,75.83
2023-04-06T03:39:35.250Z,76.50
2023-04-06T03:43:37.913Z,76.20
2023-04-06T03:47:40.719Z,76.65
2023-04-06T03:51:44.764Z,76.53
2023-04-06T03:55:48.043Z,76.20
2023-04-06T03:59:50.892Z,76.34
2023-04-06T04:03:53.801Z,76.91
2023-04-06T04:07:57.855Z,76.38
2023-04-06T04:12:00.811Z,75.99
2023-04-06T04:16:03.562Z,76.11
2023-04-06T04:20:07.929Z,75.75
2023-04-06T04:24:11.954Z,76.56
2023-04-06T04:28:14.646Z,76.87
2023-04-06T04:32:17.571Z,76.54
2023-04-06T04:36:20.269Z,76.74
2023-04-06T04:40:24.356Z,76.47
2023-04-06T04:44:27.010Z,76.41
2023-04-06T04:48:29.685Z,76.39
2023-04-06T04:52:32.316Z,76.57
2023-04-06T04:56:36.743Z,76.25
2023-04-06T05:00:39.495Z,76.50
2023-04-06T05:04:42.163Z,76.40
2023-04-06T05:08:44.920Z,77.24
2023-04-06T05:12:48.965Z,76.94
2023-04-06T05:16:51.723Z,76.44
2023-04-06T05:20:54.473Z,77.46
2023-04-06T05:24:57.100Z,76.86
2023-04-06T05:29:01.149Z,76.57
2023-04-06T05:33:04.240Z,76.10
2023-04-06T05:37:06.889Z,76.57
2023-04-06T05:41:09.625Z,76.17
2023-04-06T05:45:17.678Z,75.21
2023-04-06T05:49:20.712Z,75.43
2023-04-06T05:53:23.575Z,75.85
2023-04-06T05:57:26.362Z,76.01
2023-04-06T06:01:30.708Z,75.46
2023-04-06T06:05:33.554Z,76.00
2023-04-06T06:09:36.398Z,75.58
2023-04-06T06:13:39.299Z,75.15
2023-04-06T06:17:43.699Z,76.01
2023-04-06T06:21:46.445Z,74.69
2023-04-06T06:25:49.162Z,74.30
2023-04-06T06:29:52.739Z,72.71
2023-04-06T06:33:56.925Z,72.01
2023-04-06T06:37:59.581Z,71.85
2023-04-06T06:42:02.782Z,71.83
2023-04-06T06:46:05.685Z,68.45
2023-04-06T06:50:10.608Z,67.10
2023-04-06T06:54:13.385Z,64.30
2023-04-06T06:58:16.668Z,63.97
2023-04-06T07:02:19.517Z,64.83
2023-04-06T07:06:23.884Z,61.23
2023-04-06T07:10:27.180Z,60.01
2023-04-06T07:14:30.095Z,59.04
2023-04-06T07:18:34.840Z,58.73
2023-04-06T07:22:40.486Z,58.67
2023-04-06T07:26:44.691Z,58.20
2023-04-06T07:30:47.520Z,58.10
2023-04-06T07:34:50.466Z,58.31
2023-04-06T07:38:54.656Z,58.64
2023-04-06T07:42:58.231Z,58.41
2023-04-06T07:47:01.338Z,57.31
2023-04-06T07:51:04.652Z,57.71
2023-04-06T07:55:10.676Z,55.78
2023-04-06T07:59:14.843Z,55.77
2023-04-06T08:03:17.899Z,56.24
2023-04-06T08:07:20.877Z,54.71
2023-04-06T08:11:24.970Z,54.92
2023-04-06T08:15:28.292Z,54.06
2023-04-06T08:19:31.195Z,51.87
2023-04-06T08:23:33.886Z,51.98
2023-04-06T08:27:38.051Z,50.12
2023-04-06T08:31:40.812Z,50.97
2023-04-06T08:35:43.768Z,49.83
2023-04-06T08:39:46.487Z,48.58
2023-04-06T08:43:55.138Z,47.63
2023-04-06T08:48:03.689Z,48.75
2023-04-06T08:52:08.944Z,46.85
2023-04-06T08:56:12.665Z,44.69
2023-04-06T09:00:18.716Z,44.74
2023-04-06T09:04:21.881Z,44.04
2023-04-06T09:08:25.657Z,43.24
2023-04-06T09:12:30.483Z,42.45
2023-04-06T09:16:41.803Z,40.97
2023-04-06T09:20:44.717Z,43.31
2023-04-06T09:24:49.076Z,42.61
2023-04-06T09:28:53.033Z,40.13
2023-04-06T09:32:58.455Z,41.39
2023-04-06T09:37:01.393Z,40.94
2023-04-06T09:41:04.624Z,39.63
2023-04-06T09:45:08.422Z,37.76
2023-04-06T09:49:13.708Z,36.25
2023-04-06T09:53:17.249Z,37.18
2023-04-06T09:57:27.011Z,37.62
2023-04-06T10:01:31.852Z,34.77
2023-04-06T10:05:40.044Z,34.50
2023-04-06T10:09:43.987Z,36.24
2023-04-06T10:13:48.782Z,37.06
2023-04-06T10:17:51.833Z,38.00
2023-04-06T10:21:58.664Z,35.19
2023-04-06T10:26:02.752Z,36.95
2023-04-06T10:30:07.555Z,33.83
2023-04-06T10:34:10.681Z,33.88
2023-04-06T10:38:15.654Z,34.64
2023-04-06T10:42:18.339Z,34.27
2023-04-06T10:46:28.011Z,34.67
2023-04-06T10:50:31.822Z,36.38
2023-04-06T10:54:40.229Z,32.63
2023-04-06T10:58:47.546Z,33.87
2023-04-06T11:02:50.286Z,34.55
2023-04-06T11:06:53.324Z,35.51
2023-04-06T11:11:08.247Z,34.34
2023-04-06T11:15:11.949Z,32.67
2023-04-06T11:19:15.510Z,33.15
2023-04-06T11:23:24.794Z,31.45
2023-04-06T11:27:32.374Z,30.43
2023-04-06T11:31:40.388Z,32.24
2023-04-06T11:35:43.543Z,29.39
2023-04-06T11:39:51.587Z,30.15
2023-04-06T11:43:57.629Z,30.53
2023-04-06T11:48:02.426Z,31.99
2023-04-06T11:52:22.308Z,29.74
2023-04-06T11:56:27.113Z,30.84
2023-04-06T12:00:39.996Z,29.20
2023-04-06T12:04:42.775Z,28.84
2023-04-06T12:08:45.763Z,28.46
2023-04-06T12:12:48.453Z,29.03
2023-04-06T12:16:52.492Z,27.96
2023-04-06T12:21:01.041Z,29.90
2023-04-06T12:25:03.758Z,29.31
2023-04-06T12:29:07.996Z,26.44
2023-04-06T12:33:12.354Z,27.00
2023-04-06T12:37:18.068Z,26.77
2023-04-06T12:41:20.974Z,27.05
2023-04-06T12:45:23.651Z,27.01
2023-04-06T12:49:28.090Z,26.24
2023-04-06T12:53:34.482Z,26.83
2023-04-06T12:57:38.465Z,25.46
2023-04-06T13:01:41.478Z,25.43
2023-04-06T13:05:47.299Z,25.85
2023-04-06T13:09:50.542Z,24.81
2023-04-06T13:13:53.246Z,24.85
2023-04-06T13:17:56.796Z,25.23
2023-04-06T13:22:07.050Z,26.67
2023-04-06T13:26:10.478Z,26.17
2023-04-06T13:30:15.762Z,25.45
2023-04-06T13:34:19.411Z,25.76
2023-04-06T13:38:25.076Z,25.76
2023-04-06T13:42:27.764Z,25.50
2023-04-06T13:46:30.498Z,26.76
2023-04-06T13:50:33.165Z,26.69
2023-04-06T13:54:37.464Z,26.05
2023-04-06T13:58:40.170Z,24.62
2023-04-06T14:02:42.989Z,24.99
2023-04-06T14:06:46.996Z,25.04
2023-04-06T14:10:51.014Z,25.02
2023-04-06T14:14:53.858Z,25.25
2023-04-06T14:18:58.810Z,25.84
2023-04-06T14:23:02.399Z,25.96
2023-04-06T14:27:06.445Z,24.37
2023-04-06T14:31:13.149Z,26.12
2023-04-06T14:35:15.951Z,24.02
2023-04-06T14:39:18.624Z,23.40
2023-04-06T14:43:22.643Z,23.54
2023-04-06T14:47:25.688Z,24.31
2023-04-06T14:51:29.199Z,26.64
2023-04-06T14:55:31.883Z,24.02
2023-04-06T14:59:37.889Z,24.83
2023-04-06T15:03:42.792Z,24.06
2023-04-06T15:07:45.574Z,24.60
2023-04-06T15:11:48.289Z,26.08
2023-04-06T15:15:53.179Z,26.29
2023-04-06T15:19:55.911Z,26.62
2023-04-06T15:23:58.663Z,25.46
2023-04-06T15:28:01.813Z,26.36
2023-04-06T15:32:06.467Z,25.22
2023-04-06T15:36:23.607Z,25.89
2023-04-06T15:40:27.298Z,26.13
2023-04-06T15:44:29.975Z,26.29
2023-04-06T15:48:34.828Z,24.41
2023-04-06T15:52:39.273Z,25.75
2023-04-06T15:56:41.933Z,25.48
2023-04-06T16:00:44.679Z,24.49
2023-04-06T16:04:48.814Z,24.21
2023-04-06T16:08:51.591Z,27.37
2023-04-06T16:12:54.229Z,24.86
2023-04-06T16:16:57.575Z,26.02
2023-04-06T16:21:01.766Z,25.10
2023-04-06T16:25:04.779Z,25.08
2023-04-06T16:29:07.994Z,25.66
2023-04-06T16:33:11.014Z,24.70
2023-04-06T16:37:15.028Z,25.31
2023-04-06T16:41:17.660Z,26.74
2023-04-06T16:45:21.233Z,27.58
2023-04-06T16:49:24.381Z,26.99
2023-04-06T16:53:28.605Z,26.12
2023-04-06T16:57:31.279Z,26.42
2023-04-06T17:01:34.003Z,26.69
2023-04-06T17:05:36.711Z,26.44
2023-04-06T17:09:41.762Z,27.17
2023-04-06T17:13:45.578Z,27.81
2023-04-06T17:17:48.438Z,27.51
2023-04-06T17:21:52.004Z,28.02
2023-04-06T17:25:57.854Z,28.82
2023-04-06T17:30:06.328Z,29.82
2023-04-06T17:34:10.315Z,32.79
2023-04-06T17:38:13.008Z,35.42
2023-04-06T17:42:18.210Z,36.14
2023-04-06T17:46:22.796Z,36.86
2023-04-06T17:50:25.858Z,37.38
2023-04-06T17:54:34.729Z,38.48
2023-04-06T17:58:39.153Z,38.74
2023-04-06T18:02:41.938Z,40.41
2023-04-06T18:06:44.695Z,42.99
2023-04-06T18:10:48.659Z,42.04
2023-04-06T18:14:58.621Z,41.47
2023-04-06T18:19:01.641Z,41.43
2023-04-06T18:23:04.307Z,42.27
2023-04-06T18:27:07.347Z,43.07
2023-04-06T18:31:17.161Z,45.92
2023-04-06T18:35:19.842Z,45.42
2023-04-06T18:39:22.505Z,46.15
2023-04-06T18:43:25.428Z,46.37
2023-04-06T18:47:35.338Z,46.62
2023-04-06T18:51:38.331Z,46.67
2023-04-06T18:55:40.986Z,47.10
2023-04-06T18:59:43.696Z,48.31
2023-04-06T19:03:55.427Z,47.80
2023-04-06T19:07:58.552Z,47.93
2023-04-06T19:12:01.275Z,48.75
2023-04-06T19:16:04.122Z,50.09
2023-04-06T19:20:09.648Z,50.14
2023-04-06T19:24:13.279Z,49.99
2023-04-06T19:28:16.040Z,51.01
2023-04-06T19:32:18.807Z,51.73
2023-04-06T19:36:22.952Z,52.03
2023-04-06T19:40:25.786Z,50.97
2023-04-06T19:44:29.196Z,51.74
2023-04-06T19:48:34.350Z,54.52
2023-04-06T19:52:38.535Z,55.88
2023-04-06T19:56:41.264Z,55.61
2023-04-06T20:00:43.973Z,56.26
2023-04-06T20:04:46.711Z,57.06
2023-04-06T20:08:51.820Z,57.56
2023-04-06T20:12:54.600Z,58.50
2023-04-06T20:16:57.813Z,58.41
2023-04-06T20:21:00.882Z,58.05
2023-04-06T20:25:05.478Z,57.72
2023-04-06T20:29:08.188Z,58.10
2023-04-06T20:33:13.438Z,59.63
2023-04-06T20:37:17.613Z,59.88
2023-04-06T20:41:22.034Z,59.06
2023-04-06T20:45:25.165Z,59.28
2023-04-06T20:49:28.160Z,59.08
2023-04-06T20:53:32.733Z,59.99
2023-04-06T20:57:36.732Z,60.19
2023-04-06T21:01:40.240Z,59.80
2023-04-06T21:05:42.938Z,60.61
2023-04-06T21:09:45.565Z,61.23
2023-04-06T21:13:49.537Z,62.19
2023-04-06T21:17:52.239Z,62.86
2023-04-06T21:21:55.129Z,62.97
2023-04-06T21:25:57.933Z,62.17
2023-04-06T21:30:02.125Z,63.44
2023-04-06T21:34:09.524Z,64.54
2023-04-06T21:38:12.324Z,64.82
2023-04-06T21:42:15.018Z,65.04
2023-04-06T21:46:19.200Z,65.43
2023-04-06T21:50:21.820Z,64.51
2023-04-06T21:54:24.475Z,64.72
2023-04-06T21:58:27.127Z,65.46
2023-04-06T22:02:32.150Z,66.40
2023-04-06T22:06:34.953Z,67.10
2023-04-06T22:10:39.634Z,67.17
2023-04-06T22:14:42.424Z,66.80
2023-04-06T22:18:46.740Z,66.72
2023-04-06T22:22:49.451Z,66.98
2023-04-06T22:26:52.059Z,67.84
2023-04-06T22:30:54.667Z,68.33
2023-04-06T22:34:58.623Z,67.85
2023-04-06T22:39:01.421Z,68.06
2023-04-06T22:43:04.011Z,68.61
2023-04-06T22:47:06.747Z,69.09
2023-04-06T22:51:10.791Z,68.97
2023-04-06T22:55:13.437Z,69.37
2023-04-06T22:59:16.028Z,69.50
2023-04-06T23:03:18.759Z,69.37
2023-04-06T23:07:22.801Z,68.30
2023-04-06T23:11:25.485Z,69.21
2023-04-06T23:15:28.271Z,69.41
2023-04-06T23:19:31.307Z,69.73
2023-04-06T23:23:35.502Z,69.69
2023-04-06T23:27:38.145Z,70.50
2023-04-06T23:31:40.935Z,70.40
2023-04-06T23:35:43.709Z,70.57
2023-04-06T23:39:48.395Z,70.07
2023-04-06T23:43:51.818Z,70.84
2023-04-06T23:47:54.576Z,70.62
2023-04-06T23:51:57.210Z,71.11
2023-04-06T23:56:01.477Z,71.61
